sensor_id;sensor_type;location;lat;lon;timestamp;P1;durP1;ratioP1;P2;durP2;ratioP2
13309;SDS011;6723;48.256;16.402;2022-08-21T00:00:47;2.40;;;2.20;;
13309;SDS011;6723;48.256;16.402;2022-08-21T00:03:14;2.80;;;2.17;;
13309;SDS011;6723;48.256;16.402;2022-08-21T00:05:42;2.53;;;2.33;;
13309;SDS011;6723;48.256;16.402;2022-08-21T00:08:11;2.53;;;2.33;;
13309;SDS011;6723;48.256;16.402;2022-08-21T00:10:37;2.57;;;2.37;;
13309;SDS011;6723;48.256;16.402;2022-08-21T00:13:05;2.37;;;2.17;;
13309;SDS011;6723;48.256;16.402;2022-08-21T00:15:32;2.57;;;2.37;;
13309;SDS011;6723;48.256;16.402;2022-08-21T00:18:01;2.47;;;2.27;;
13309;SDS011;6723;48.256;16.402;2022-08-21T00:20:29;2.60;;;2.33;;
13309;SDS011;6723;48.256;16.402;2022-08-21T00:22:55;2.57;;;2.37;;
13309;SDS011;6723;48.256;16.402;2022-08-21T00:25:21;2.60;;;2.40;;
13309;SDS011;6723;48.256;16.402;2022-08-21T00:27:47;2.83;;;2.63;;
13309;SDS011;6723;48.256;16.402;2022-08-21T00:30:14;2.60;;;2.40;;
13309;SDS011;6723;48.256;16.402;2022-08-21T00:32:42;2.80;;;2.30;;
13309;SDS011;6723;48.256;16.402;2022-08-21T00:35:11;2.80;;;2.60;;
13309;SDS011;6723;48.256;16.402;2022-08-21T00:37:41;2.80;;;2.60;;
13309;SDS011;6723;48.256;16.402;2022-08-21T00:40:10;2.70;;;2.50;;
13309;SDS011;6723;48.256;16.402;2022-08-21T00:42:39;2.67;;;2.47;;
13309;SDS011;6723;48.256;16.402;2022-08-21T00:45:06;2.90;;;2.70;;
13309;SDS011;6723;48.256;16.402;2022-08-21T00:47:33;2.50;;;2.30;;
13309;SDS011;6723;48.256;16.402;2022-08-21T00:49:59;2.87;;;2.60;;
13309;SDS011;6723;48.256;16.402;2022-08-21T00:52:26;2.50;;;2.30;;
13309;SDS011;6723;48.256;16.402;2022-08-21T00:54:55;2.70;;;2.50;;
13309;SDS011;6723;48.256;16.402;2022-08-21T00:57:26;2.50;;;2.30;;
13309;SDS011;6723;48.256;16.402;2022-08-21T01:00:05;3.00;;;2.70;;
13309;SDS011;6723;48.256;16.402;2022-08-21T01:02:33;2.70;;;2.50;;
13309;SDS011;6723;48.256;16.402;2022-08-21T01:04:59;2.90;;;2.70;;
13309;SDS011;6723;48.256;16.402;2022-08-21T01:07:25;3.40;;;3.10;;
13309;SDS011;6723;48.256;16.402;2022-08-21T01:09:51;3.30;;;3.00;;
13309;SDS011;6723;48.256;16.402;2022-08-21T01:12:17;3.07;;;2.87;;
13309;SDS011;6723;48.256;16.402;2022-08-21T01:14:43;4.23;;;2.90;;
13309;SDS011;6723;48.256;16.402;2022-08-21T01:17:11;3.77;;;2.80;;
13309;SDS011;6723;48.256;16.402;2022-08-21T01:19:39;2.93;;;2.73;;
13309;SDS011;6723;48.256;16.402;2022-08-21T01:22:05;3.10;;;2.90;;
13309;SDS011;6723;48.256;16.402;2022-08-21T01:24:31;3.37;;;3.03;;
13309;SDS011;6723;48.256;16.402;2022-08-21T01:26:58;3.50;;;3.20;;
13309;SDS011;6723;48.256;16.402;2022-08-21T01:29:36;3.20;;;3.00;;
13309;SDS011;6723;48.256;16.402;2022-08-21T01:32:21;3.97;;;2.90;;
13309;SDS011;6723;48.256;16.402;2022-08-21T01:34:48;3.40;;;3.10;;
13309;SDS011;6723;48.256;16.402;2022-08-21T01:37:16;3.33;;;3.03;;
13309;SDS011;6723;48.256;16.402;2022-08-21T01:39:44;3.90;;;3.60;;
13309;SDS011;6723;48.256;16.402;2022-08-21T01:42:11;3.43;;;3.10;;
13309;SDS011;6723;48.256;16.402;2022-08-21T01:44:38;3.70;;;3.40;;
13309;SDS011;6723;48.256;16.402;2022-08-21T01:47:05;3.80;;;3.50;;
13309;SDS011;6723;48.256;16.402;2022-08-21T01:49:35;4.13;;;3.67;;
13309;SDS011;6723;48.256;16.402;2022-08-21T01:52:02;3.90;;;3.60;;
13309;SDS011;6723;48.256;16.402;2022-08-21T01:54:29;3.77;;;3.47;;
13309;SDS011;6723;48.256;16.402;2022-08-21T01:56:55;3.73;;;3.23;;
13309;SDS011;6723;48.256;16.402;2022-08-21T01:59:23;3.70;;;3.40;;
13309;SDS011;6723;48.256;16.402;2022-08-21T02:01:49;3.33;;;3.13;;
13309;SDS011;6723;48.256;16.402;2022-08-21T02:04:16;3.40;;;3.20;;
13309;SDS011;6723;48.256;16.402;2022-08-21T02:06:42;3.43;;;3.13;;
13309;SDS011;6723;48.256;16.402;2022-08-21T02:09:08;3.47;;;3.23;;
13309;SDS011;6723;48.256;16.402;2022-08-21T02:11:36;3.30;;;3.00;;
13309;SDS011;6723;48.256;16.402;2022-08-21T02:14:06;2.97;;;2.77;;
13309;SDS011;6723;48.256;16.402;2022-08-21T02:16:37;3.60;;;3.30;;
13309;SDS011;6723;48.256;16.402;2022-08-21T02:19:03;3.40;;;3.10;;
13309;SDS011;6723;48.256;16.402;2022-08-21T02:21:30;3.50;;;3.20;;
13309;SDS011;6723;48.256;16.402;2022-08-21T02:23:56;2.80;;;2.60;;
13309;SDS011;6723;48.256;16.402;2022-08-21T02:26:22;2.80;;;2.60;;
13309;SDS011;6723;48.256;16.402;2022-08-21T02:28:47;2.80;;;2.60;;
13309;SDS011;6723;48.256;16.402;2022-08-21T02:31:13;3.07;;;2.73;;
13309;SDS011;6723;48.256;16.402;2022-08-21T02:33:40;3.07;;;2.80;;
13309;SDS011;6723;48.256;16.402;2022-08-21T02:36:06;3.20;;;3.00;;
13309;SDS011;6723;48.256;16.402;2022-08-21T02:38:33;3.93;;;2.70;;
13309;SDS011;6723;48.256;16.402;2022-08-21T02:41:04;2.97;;;2.50;;
13309;SDS011;6723;48.256;16.402;2022-08-21T02:43:31;3.20;;;2.90;;
13309;SDS011;6723;48.256;16.402;2022-08-21T02:45:57;2.67;;;2.47;;
13309;SDS011;6723;48.256;16.402;2022-08-21T02:48:25;2.33;;;2.13;;
13309;SDS011;6723;48.256;16.402;2022-08-21T02:50:54;2.43;;;2.33;;
13309;SDS011;6723;48.256;16.402;2022-08-21T02:53:23;3.10;;;2.17;;
13309;SDS011;6723;48.256;16.402;2022-08-21T02:55:50;2.50;;;2.30;;
13309;SDS011;6723;48.256;16.402;2022-08-21T02:58:19;2.60;;;2.40;;
13309;SDS011;6723;48.256;16.402;2022-08-21T03:00:47;2.20;;;2.10;;
13309;SDS011;6723;48.256;16.402;2022-08-21T03:03:12;2.67;;;2.30;;
13309;SDS011;6723;48.256;16.402;2022-08-21T03:05:39;2.60;;;2.40;;
13309;SDS011;6723;48.256;16.402;2022-08-21T03:08:07;2.40;;;2.10;;
13309;SDS011;6723;48.256;16.402;2022-08-21T03:10:37;2.10;;;2.00;;
13309;SDS011;6723;48.256;16.402;2022-08-21T03:13:07;2.20;;;2.00;;
13309;SDS011;6723;48.256;16.402;2022-08-21T03:15:33;1.77;;;1.67;;
13309;SDS011;6723;48.256;16.402;2022-08-21T03:17:59;3.67;;;2.20;;
13309;SDS011;6723;48.256;16.402;2022-08-21T03:20:28;1.97;;;1.87;;
13309;SDS011;6723;48.256;16.402;2022-08-21T03:22:57;2.03;;;1.93;;
13309;SDS011;6723;48.256;16.402;2022-08-21T03:25:25;2.27;;;1.87;;
13309;SDS011;6723;48.256;16.402;2022-08-21T03:27:52;1.80;;;1.70;;
13309;SDS011;6723;48.256;16.402;2022-08-21T03:30:18;1.97;;;1.87;;
13309;SDS011;6723;48.256;16.402;2022-08-21T03:32:47;2.30;;;2.00;;
13309;SDS011;6723;48.256;16.402;2022-08-21T03:35:14;1.83;;;1.73;;
13309;SDS011;6723;48.256;16.402;2022-08-21T03:37:40;1.90;;;1.80;;
13309;SDS011;6723;48.256;16.402;2022-08-21T03:40:07;2.83;;;1.90;;
13309;SDS011;6723;48.256;16.402;2022-08-21T03:45:29;1.97;;;1.87;;
13309;SDS011;6723;48.256;16.402;2022-08-21T03:48:00;2.00;;;1.90;;
13309;SDS011;6723;48.256;16.402;2022-08-21T03:50:29;1.90;;;1.80;;
13309;SDS011;6723;48.256;16.402;2022-08-21T03:52:56;2.10;;;1.90;;
13309;SDS011;6723;48.256;16.402;2022-08-21T03:55:24;2.30;;;2.10;;
13309;SDS011;6723;48.256;16.402;2022-08-21T03:57:51;2.53;;;1.90;;
13309;SDS011;6723;48.256;16.402;2022-08-21T04:00:17;1.97;;;1.87;;
13309;SDS011;6723;48.256;16.402;2022-08-21T04:02:44;2.10;;;1.90;;
13309;SDS011;6723;48.256;16.402;2022-08-21T04:05:11;2.20;;;2.00;;
13309;SDS011;6723;48.256;16.402;2022-08-21T04:07:39;2.17;;;2.07;;
13309;SDS011;6723;48.256;16.402;2022-08-21T04:10:05;2.10;;;2.00;;
13309;SDS011;6723;48.256;16.402;2022-08-21T04:12:32;2.23;;;2.03;;
13309;SDS011;6723;48.256;16.402;2022-08-21T04:14:58;2.37;;;2.17;;
13309;SDS011;6723;48.256;16.402;2022-08-21T04:17:24;2.23;;;2.03;;
13309;SDS011;6723;48.256;16.402;2022-08-21T04:19:50;2.53;;;2.33;;
13309;SDS011;6723;48.256;16.402;2022-08-21T04:22:16;2.13;;;2.03;;
13309;SDS011;6723;48.256;16.402;2022-08-21T04:24:42;2.63;;;2.30;;
13309;SDS011;6723;48.256;16.402;2022-08-21T04:27:08;2.17;;;1.97;;
13309;SDS011;6723;48.256;16.402;2022-08-21T04:29:33;2.63;;;2.43;;
13309;SDS011;6723;48.256;16.402;2022-08-21T04:31:59;2.40;;;2.20;;
13309;SDS011;6723;48.256;16.402;2022-08-21T04:34:25;2.70;;;2.30;;
13309;SDS011;6723;48.256;16.402;2022-08-21T04:36:50;2.50;;;2.30;;
13309;SDS011;6723;48.256;16.402;2022-08-21T04:39:16;2.60;;;2.40;;
13309;SDS011;6723;48.256;16.402;2022-08-21T04:41:42;2.50;;;2.30;;
13309;SDS011;6723;48.256;16.402;2022-08-21T04:44:07;2.70;;;2.50;;
13309;SDS011;6723;48.256;16.402;2022-08-21T04:46:34;2.70;;;2.50;;
13309;SDS011;6723;48.256;16.402;2022-08-21T04:48:59;2.73;;;2.53;;
13309;SDS011;6723;48.256;16.402;2022-08-21T04:51:27;3.53;;;3.10;;
13309;SDS011;6723;48.256;16.402;2022-08-21T04:54:02;2.77;;;2.57;;
13309;SDS011;6723;48.256;16.402;2022-08-21T04:56:39;2.87;;;2.67;;
13309;SDS011;6723;48.256;16.402;2022-08-21T04:59:16;2.93;;;2.73;;
13309;SDS011;6723;48.256;16.402;2022-08-21T05:01:47;2.80;;;2.60;;
13309;SDS011;6723;48.256;16.402;2022-08-21T05:04:14;4.10;;;2.90;;
13309;SDS011;6723;48.256;16.402;2022-08-21T05:06:46;2.80;;;2.57;;
13309;SDS011;6723;48.256;16.402;2022-08-21T05:09:14;2.70;;;2.50;;
13309;SDS011;6723;48.256;16.402;2022-08-21T05:11:41;2.93;;;2.73;;
13309;SDS011;6723;48.256;16.402;2022-08-21T05:14:08;2.93;;;2.50;;
13309;SDS011;6723;48.256;16.402;2022-08-21T05:16:36;2.80;;;2.60;;
13309;SDS011;6723;48.256;16.402;2022-08-21T05:19:03;2.90;;;2.70;;
13309;SDS011;6723;48.256;16.402;2022-08-21T05:21:30;2.90;;;2.70;;
13309;SDS011;6723;48.256;16.402;2022-08-21T05:23:59;2.90;;;2.60;;
13309;SDS011;6723;48.256;16.402;2022-08-21T05:26:25;2.80;;;2.60;;
13309;SDS011;6723;48.256;16.402;2022-08-21T05:28:51;2.90;;;2.60;;
13309;SDS011;6723;48.256;16.402;2022-08-21T05:31:17;2.47;;;2.27;;
13309;SDS011;6723;48.256;16.402;2022-08-21T05:33:43;2.80;;;2.60;;
13309;SDS011;6723;48.256;16.402;2022-08-21T05:36:09;3.00;;;2.80;;
13309;SDS011;6723;48.256;16.402;2022-08-21T05:38:34;2.87;;;2.67;;
13309;SDS011;6723;48.256;16.402;2022-08-21T05:41:00;3.07;;;2.87;;
13309;SDS011;6723;48.256;16.402;2022-08-21T05:43:26;3.33;;;2.60;;
13309;SDS011;6723;48.256;16.402;2022-08-21T05:45:52;3.30;;;3.10;;
13309;SDS011;6723;48.256;16.402;2022-08-21T05:48:22;2.90;;;2.70;;
13309;SDS011;6723;48.256;16.402;2022-08-21T05:50:49;2.90;;;2.70;;
13309;SDS011;6723;48.256;16.402;2022-08-21T05:53:17;3.33;;;3.03;;
13309;SDS011;6723;48.256;16.402;2022-08-21T05:55:45;3.03;;;2.83;;
13309;SDS011;6723;48.256;16.402;2022-08-21T05:58:12;3.50;;;3.20;;
13309;SDS011;6723;48.256;16.402;2022-08-21T06:00:40;3.20;;;3.00;;
13309;SDS011;6723;48.256;16.402;2022-08-21T06:03:13;3.20;;;3.00;;
13309;SDS011;6723;48.256;16.402;2022-08-21T06:05:42;3.07;;;2.87;;
13309;SDS011;6723;48.256;16.402;2022-08-21T06:08:08;3.07;;;2.87;;
13309;SDS011;6723;48.256;16.402;2022-08-21T06:10:34;3.27;;;3.07;;
13309;SDS011;6723;48.256;16.402;2022-08-21T06:13:00;3.20;;;3.00;;
13309;SDS011;6723;48.256;16.402;2022-08-21T06:15:26;3.17;;;2.90;;
13309;SDS011;6723;48.256;16.402;2022-08-21T06:17:52;3.57;;;3.27;;
13309;SDS011;6723;48.256;16.402;2022-08-21T06:20:18;2.90;;;2.70;;
13309;SDS011;6723;48.256;16.402;2022-08-21T06:22:44;3.10;;;2.90;;
13309;SDS011;6723;48.256;16.402;2022-08-21T06:25:10;4.70;;;3.20;;
13309;SDS011;6723;48.256;16.402;2022-08-21T06:27:36;3.67;;;3.00;;
13309;SDS011;6723;48.256;16.402;2022-08-21T06:30:02;2.90;;;2.70;;
13309;SDS011;6723;48.256;16.402;2022-08-21T06:32:30;4.50;;;2.67;;
13309;SDS011;6723;48.256;16.402;2022-08-21T06:34:56;3.13;;;2.83;;
13309;SDS011;6723;48.256;16.402;2022-08-21T06:37:22;3.27;;;2.97;;
13309;SDS011;6723;48.256;16.402;2022-08-21T06:39:48;4.00;;;3.17;;
13309;SDS011;6723;48.256;16.402;2022-08-21T06:42:14;3.83;;;3.27;;
13309;SDS011;6723;48.256;16.402;2022-08-21T06:44:41;3.47;;;3.17;;
13309;SDS011;6723;48.256;16.402;2022-08-21T06:47:08;3.23;;;3.00;;
13309;SDS011;6723;48.256;16.402;2022-08-21T06:49:34;3.23;;;2.93;;
13309;SDS011;6723;48.256;16.402;2022-08-21T06:52:00;3.77;;;3.33;;
13309;SDS011;6723;48.256;16.402;2022-08-21T06:54:26;3.80;;;3.50;;
13309;SDS011;6723;48.256;16.402;2022-08-21T06:56:52;3.90;;;3.60;;
13309;SDS011;6723;48.256;16.402;2022-08-21T06:59:18;3.53;;;3.23;;
13309;SDS011;6723;48.256;16.402;2022-08-21T07:01:44;3.87;;;3.57;;
13309;SDS011;6723;48.256;16.402;2022-08-21T07:04:10;3.73;;;3.43;;
13309;SDS011;6723;48.256;16.402;2022-08-21T07:06:36;3.50;;;3.20;;
13309;SDS011;6723;48.256;16.402;2022-08-21T07:09:02;3.63;;;3.43;;
13309;SDS011;6723;48.256;16.402;2022-08-21T07:11:29;4.00;;;3.60;;
13309;SDS011;6723;48.256;16.402;2022-08-21T07:13:55;4.03;;;3.63;;
13309;SDS011;6723;48.256;16.402;2022-08-21T07:16:22;4.13;;;3.60;;
13309;SDS011;6723;48.256;16.402;2022-08-21T07:18:48;4.20;;;3.80;;
13309;SDS011;6723;48.256;16.402;2022-08-21T07:21:14;6.33;;;3.70;;
13309;SDS011;6723;48.256;16.402;2022-08-21T07:23:42;3.80;;;3.50;;
13309;SDS011;6723;48.256;16.402;2022-08-21T07:26:11;3.97;;;3.67;;
13309;SDS011;6723;48.256;16.402;2022-08-21T07:28:39;3.90;;;3.60;;
13309;SDS011;6723;48.256;16.402;2022-08-21T07:31:05;4.10;;;3.70;;
13309;SDS011;6723;48.256;16.402;2022-08-21T07:33:32;4.23;;;3.83;;
13309;SDS011;6723;48.256;16.402;2022-08-21T07:35:59;4.40;;;4.00;;
13309;SDS011;6723;48.256;16.402;2022-08-21T07:38:26;5.47;;;4.43;;
13309;SDS011;6723;48.256;16.402;2022-08-21T07:40:52;5.03;;;4.00;;
13309;SDS011;6723;48.256;16.402;2022-08-21T07:43:21;4.63;;;4.23;;
13309;SDS011;6723;48.256;16.402;2022-08-21T07:45:47;4.50;;;4.10;;
13309;SDS011;6723;48.256;16.402;2022-08-21T07:48:16;3.83;;;3.50;;
13309;SDS011;6723;48.256;16.402;2022-08-21T07:50:42;3.97;;;3.57;;
13309;SDS011;6723;48.256;16.402;2022-08-21T07:53:08;3.90;;;3.50;;
13309;SDS011;6723;48.256;16.402;2022-08-21T07:55:34;3.83;;;3.53;;
13309;SDS011;6723;48.256;16.402;2022-08-21T07:58:00;3.20;;;3.00;;
13309;SDS011;6723;48.256;16.402;2022-08-21T08:00:26;3.30;;;3.07;;
13309;SDS011;6723;48.256;16.402;2022-08-21T08:02:54;3.40;;;3.10;;
13309;SDS011;6723;48.256;16.402;2022-08-21T08:05:22;3.97;;;3.67;;
13309;SDS011;6723;48.256;16.402;2022-08-21T08:07:51;3.80;;;3.50;;
13309;SDS011;6723;48.256;16.402;2022-08-21T08:10:18;3.77;;;3.47;;
13309;SDS011;6723;48.256;16.402;2022-08-21T08:12:44;4.00;;;3.70;;
13309;SDS011;6723;48.256;16.402;2022-08-21T08:15:13;3.93;;;3.63;;
13309;SDS011;6723;48.256;16.402;2022-08-21T08:17:41;4.20;;;3.83;;
13309;SDS011;6723;48.256;16.402;2022-08-21T08:20:07;3.97;;;3.67;;
13309;SDS011;6723;48.256;16.402;2022-08-21T08:22:35;4.57;;;4.17;;
13309;SDS011;6723;48.256;16.402;2022-08-21T08:25:03;3.93;;;3.63;;
13309;SDS011;6723;48.256;16.402;2022-08-21T08:27:31;3.40;;;3.10;;
13309;SDS011;6723;48.256;16.402;2022-08-21T08:29:57;4.20;;;3.90;;
13309;SDS011;6723;48.256;16.402;2022-08-21T08:32:23;3.97;;;3.67;;
13309;SDS011;6723;48.256;16.402;2022-08-21T08:34:49;4.67;;;4.27;;
13309;SDS011;6723;48.256;16.402;2022-08-21T08:37:16;4.27;;;3.90;;
13309;SDS011;6723;48.256;16.402;2022-08-21T08:39:44;4.27;;;3.97;;
13309;SDS011;6723;48.256;16.402;2022-08-21T08:42:14;4.10;;;3.70;;
13309;SDS011;6723;48.256;16.402;2022-08-21T08:44:49;4.17;;;3.87;;
13309;SDS011;6723;48.256;16.402;2022-08-21T08:47:22;4.40;;;4.00;;
13309;SDS011;6723;48.256;16.402;2022-08-21T08:49:55;3.83;;;3.53;;
13309;SDS011;6723;48.256;16.402;2022-08-21T08:52:29;4.03;;;3.73;;
13309;SDS011;6723;48.256;16.402;2022-08-21T08:57:38;5.07;;;3.93;;
13309;SDS011;6723;48.256;16.402;2022-08-21T09:00:09;4.53;;;4.13;;
13309;SDS011;6723;48.256;16.402;2022-08-21T09:02:38;6.17;;;3.70;;
13309;SDS011;6723;48.256;16.402;2022-08-21T09:05:06;4.17;;;3.77;;
13309;SDS011;6723;48.256;16.402;2022-08-21T09:07:40;3.73;;;3.43;;
13309;SDS011;6723;48.256;16.402;2022-08-21T09:10:22;3.77;;;3.40;;
13309;SDS011;6723;48.256;16.402;2022-08-21T09:16:08;3.87;;;3.50;;
13309;SDS011;6723;48.256;16.402;2022-08-21T09:21:53;4.47;;;3.80;;
13309;SDS011;6723;48.256;16.402;2022-08-21T09:27:52;3.90;;;3.60;;
13309;SDS011;6723;48.256;16.402;2022-08-21T09:30:19;4.37;;;3.83;;
13309;SDS011;6723;48.256;16.402;2022-08-21T09:32:52;3.37;;;3.17;;
13309;SDS011;6723;48.256;16.402;2022-08-21T09:35:19;7.27;;;3.20;;
13309;SDS011;6723;48.256;16.402;2022-08-21T09:40:20;2.93;;;2.73;;
13309;SDS011;6723;48.256;16.402;2022-08-21T09:43:38;2.80;;;2.60;;
13309;SDS011;6723;48.256;16.402;2022-08-21T09:45:47;2.40;;;2.20;;
13309;SDS011;6723;48.256;16.402;2022-08-21T09:48:15;2.53;;;2.20;;
13309;SDS011;6723;48.256;16.402;2022-08-21T09:50:45;3.77;;;2.40;;
13309;SDS011;6723;48.256;16.402;2022-08-21T09:53:30;3.30;;;2.10;;
13309;SDS011;6723;48.256;16.402;2022-08-21T09:56:02;2.07;;;1.97;;
13309;SDS011;6723;48.256;16.402;2022-08-21T09:58:48;2.07;;;1.90;;
13309;SDS011;6723;48.256;16.402;2022-08-21T10:01:19;2.13;;;2.00;;
13309;SDS011;6723;48.256;16.402;2022-08-21T10:03:48;4.13;;;2.20;;
13309;SDS011;6723;48.256;16.402;2022-08-21T10:06:27;2.80;;;2.40;;
13309;SDS011;6723;48.256;16.402;2022-08-21T10:09:03;4.23;;;2.60;;
13309;SDS011;6723;48.256;16.402;2022-08-21T10:11:29;3.33;;;2.27;;
13309;SDS011;6723;48.256;16.402;2022-08-21T10:17:00;2.50;;;2.40;;
13309;SDS011;6723;48.256;16.402;2022-08-21T10:30:14;4.30;;;4.00;;
13309;SDS011;6723;48.256;16.402;2022-08-21T10:32:52;4.17;;;3.80;;
13309;SDS011;6723;48.256;16.402;2022-08-21T10:52:09;4.20;;;3.80;;
13309;SDS011;6723;48.256;16.402;2022-08-21T10:54:52;3.77;;;3.47;;
13309;SDS011;6723;48.256;16.402;2022-08-21T10:57:38;3.30;;;3.00;;
13309;SDS011;6723;48.256;16.402;2022-08-21T11:00:07;2.83;;;2.63;;
13309;SDS011;6723;48.256;16.402;2022-08-21T11:05:38;2.30;;;2.10;;
13309;SDS011;6723;48.256;16.402;2022-08-21T11:08:17;2.63;;;2.40;;
13309;SDS011;6723;48.256;16.402;2022-08-21T11:10:59;2.70;;;2.50;;
13309;SDS011;6723;48.256;16.402;2022-08-21T11:13:37;3.50;;;2.20;;
13309;SDS011;6723;48.256;16.402;2022-08-21T11:21:50;1.77;;;1.67;;
13309;SDS011;6723;48.256;16.402;2022-08-21T11:24:24;2.10;;;1.90;;
13309;SDS011;6723;48.256;16.402;2022-08-21T11:29:28;1.40;;;1.30;;
13309;SDS011;6723;48.256;16.402;2022-08-21T11:37:41;2.47;;;1.73;;
13309;SDS011;6723;48.256;16.402;2022-08-21T11:48:13;1.70;;;1.60;;
13309;SDS011;6723;48.256;16.402;2022-08-21T11:51:00;1.80;;;1.70;;
13309;SDS011;6723;48.256;16.402;2022-08-21T11:56:06;2.03;;;1.80;;
13309;SDS011;6723;48.256;16.402;2022-08-21T11:58:41;1.73;;;1.63;;
13309;SDS011;6723;48.256;16.402;2022-08-21T12:01:22;1.90;;;1.80;;
13309;SDS011;6723;48.256;16.402;2022-08-21T12:04:02;2.30;;;1.40;;
13309;SDS011;6723;48.256;16.402;2022-08-21T12:06:34;1.70;;;1.60;;
13309;SDS011;6723;48.256;16.402;2022-08-21T12:09:06;1.50;;;1.40;;
13309;SDS011;6723;48.256;16.402;2022-08-21T12:17:58;3.17;;;1.50;;
13309;SDS011;6723;48.256;16.402;2022-08-21T12:23:03;1.73;;;1.63;;
13309;SDS011;6723;48.256;16.402;2022-08-21T12:25:44;1.70;;;1.60;;
13309;SDS011;6723;48.256;16.402;2022-08-21T12:28:25;1.50;;;1.40;;
13309;SDS011;6723;48.256;16.402;2022-08-21T12:30:53;1.47;;;1.37;;
13309;SDS011;6723;48.256;16.402;2022-08-21T12:33:30;1.87;;;1.50;;
13309;SDS011;6723;48.256;16.402;2022-08-21T12:38:50;2.17;;;1.70;;
13309;SDS011;6723;48.256;16.402;2022-08-21T12:41:25;3.63;;;1.57;;
13309;SDS011;6723;48.256;16.402;2022-08-21T12:47:27;1.67;;;1.57;;
13309;SDS011;6723;48.256;16.402;2022-08-21T12:49:56;1.77;;;1.57;;
13309;SDS011;6723;48.256;16.402;2022-08-21T12:55:11;2.30;;;1.50;;
13309;SDS011;6723;48.256;16.402;2022-08-21T12:57:41;1.73;;;1.63;;
13309;SDS011;6723;48.256;16.402;2022-08-21T13:00:08;1.57;;;1.47;;
13309;SDS011;6723;48.256;16.402;2022-08-21T13:02:43;1.80;;;1.70;;
13309;SDS011;6723;48.256;16.402;2022-08-21T13:05:14;1.70;;;1.60;;
13309;SDS011;6723;48.256;16.402;2022-08-21T13:07:48;2.30;;;1.90;;
13309;SDS011;6723;48.256;16.402;2022-08-21T13:12:46;2.10;;;1.90;;
13309;SDS011;6723;48.256;16.402;2022-08-21T13:15:13;4.13;;;2.20;;
13309;SDS011;6723;48.256;16.402;2022-08-21T13:17:41;2.23;;;2.03;;
13309;SDS011;6723;48.256;16.402;2022-08-21T13:20:22;1.93;;;1.70;;
13309;SDS011;6723;48.256;16.402;2022-08-21T13:22:50;2.73;;;2.10;;
13309;SDS011;6723;48.256;16.402;2022-08-21T13:25:17;3.03;;;1.90;;
13309;SDS011;6723;48.256;16.402;2022-08-21T13:27:56;5.23;;;2.00;;
13309;SDS011;6723;48.256;16.402;2022-08-21T13:30:24;2.03;;;1.80;;
13309;SDS011;6723;48.256;16.402;2022-08-21T13:32:51;2.00;;;1.77;;
13309;SDS011;6723;48.256;16.402;2022-08-21T13:35:23;4.13;;;1.97;;
13309;SDS011;6723;48.256;16.402;2022-08-21T13:37:53;3.87;;;1.97;;
13309;SDS011;6723;48.256;16.402;2022-08-21T13:40:24;3.00;;;2.00;;
13309;SDS011;6723;48.256;16.402;2022-08-21T13:42:54;1.67;;;1.57;;
13309;SDS011;6723;48.256;16.402;2022-08-21T13:47:57;3.27;;;1.80;;
13309;SDS011;6723;48.256;16.402;2022-08-21T13:50:26;1.93;;;1.77;;
13309;SDS011;6723;48.256;16.402;2022-08-21T13:52:57;2.80;;;1.70;;
13309;SDS011;6723;48.256;16.402;2022-08-21T13:55:33;3.40;;;2.20;;
13309;SDS011;6723;48.256;16.402;2022-08-21T13:58:08;4.23;;;1.97;;
13309;SDS011;6723;48.256;16.402;2022-08-21T14:00:57;3.10;;;1.90;;
13309;SDS011;6723;48.256;16.402;2022-08-21T14:03:26;2.43;;;2.23;;
13309;SDS011;6723;48.256;16.402;2022-08-21T14:06:33;2.17;;;1.77;;
13309;SDS011;6723;48.256;16.402;2022-08-21T14:09:03;3.60;;;1.70;;
13309;SDS011;6723;48.256;16.402;2022-08-21T14:11:39;1.70;;;1.60;;
13309;SDS011;6723;48.256;16.402;2022-08-21T14:14:12;4.50;;;1.57;;
13309;SDS011;6723;48.256;16.402;2022-08-21T14:19:35;2.03;;;1.70;;
13309;SDS011;6723;48.256;16.402;2022-08-21T14:22:49;2.13;;;1.90;;
13309;SDS011;6723;48.256;16.402;2022-08-21T14:24:58;2.33;;;1.97;;
13309;SDS011;6723;48.256;16.402;2022-08-21T14:27:27;2.30;;;2.03;;
13309;SDS011;6723;48.256;16.402;2022-08-21T14:29:59;2.30;;;2.10;;
13309;SDS011;6723;48.256;16.402;2022-08-21T14:32:28;2.53;;;2.10;;
13309;SDS011;6723;48.256;16.402;2022-08-21T14:35:06;3.83;;;2.40;;
13309;SDS011;6723;48.256;16.402;2022-08-21T14:37:41;2.70;;;2.40;;
13309;SDS011;6723;48.256;16.402;2022-08-21T14:40:11;2.50;;;2.30;;
13309;SDS011;6723;48.256;16.402;2022-08-21T14:42:43;2.90;;;2.67;;
13309;SDS011;6723;48.256;16.402;2022-08-21T14:45:13;3.33;;;2.40;;
13309;SDS011;6723;48.256;16.402;2022-08-21T14:47:47;2.80;;;2.60;;
13309;SDS011;6723;48.256;16.402;2022-08-21T14:50:25;2.80;;;2.60;;
13309;SDS011;6723;48.256;16.402;2022-08-21T14:52:51;3.30;;;3.00;;
13309;SDS011;6723;48.256;16.402;2022-08-21T14:55:17;4.30;;;2.93;;
13309;SDS011;6723;48.256;16.402;2022-08-21T14:57:50;4.27;;;3.10;;
13309;SDS011;6723;48.256;16.402;2022-08-21T15:00:19;3.37;;;3.07;;
13309;SDS011;6723;48.256;16.402;2022-08-21T15:02:49;3.87;;;3.13;;
13309;SDS011;6723;48.256;16.402;2022-08-21T15:05:16;3.47;;;3.17;;
13309;SDS011;6723;48.256;16.402;2022-08-21T15:07:42;3.27;;;2.97;;
13309;SDS011;6723;48.256;16.402;2022-08-21T15:10:10;4.17;;;3.37;;
13309;SDS011;6723;48.256;16.402;2022-08-21T15:12:36;3.37;;;3.07;;
13309;SDS011;6723;48.256;16.402;2022-08-21T15:15:05;4.03;;;3.10;;
13309;SDS011;6723;48.256;16.402;2022-08-21T15:17:32;3.27;;;2.97;;
13309;SDS011;6723;48.256;16.402;2022-08-21T15:19:58;4.07;;;3.20;;
13309;SDS011;6723;48.256;16.402;2022-08-21T15:22:24;5.67;;;3.53;;
13309;SDS011;6723;48.256;16.402;2022-08-21T15:24:50;3.53;;;3.23;;
13309;SDS011;6723;48.256;16.402;2022-08-21T15:27:16;5.17;;;3.93;;
13309;SDS011;6723;48.256;16.402;2022-08-21T15:29:43;4.37;;;3.70;;
13309;SDS011;6723;48.256;16.402;2022-08-21T15:34:56;6.07;;;3.90;;
13309;SDS011;6723;48.256;16.402;2022-08-21T15:37:23;5.33;;;3.60;;
13309;SDS011;6723;48.256;16.402;2022-08-21T15:39:51;5.53;;;3.37;;
13309;SDS011;6723;48.256;16.402;2022-08-21T15:42:17;4.40;;;3.43;;
13309;SDS011;6723;48.256;16.402;2022-08-21T15:44:44;3.57;;;3.27;;
13309;SDS011;6723;48.256;16.402;2022-08-21T15:47:13;3.90;;;3.53;;
13309;SDS011;6723;48.256;16.402;2022-08-21T15:49:43;4.10;;;3.60;;
13309;SDS011;6723;48.256;16.402;2022-08-21T15:52:19;3.77;;;3.27;;
13309;SDS011;6723;48.256;16.402;2022-08-21T15:54:46;4.90;;;3.70;;
13309;SDS011;6723;48.256;16.402;2022-08-21T15:57:13;3.60;;;3.30;;
13309;SDS011;6723;48.256;16.402;2022-08-21T15:59:43;3.50;;;3.10;;
13309;SDS011;6723;48.256;16.402;2022-08-21T16:02:17;3.77;;;3.27;;
13309;SDS011;6723;48.256;16.402;2022-08-21T16:04:50;3.60;;;3.30;;
13309;SDS011;6723;48.256;16.402;2022-08-21T16:07:17;3.47;;;3.17;;
13309;SDS011;6723;48.256;16.402;2022-08-21T16:09:42;3.40;;;3.10;;
13309;SDS011;6723;48.256;16.402;2022-08-21T16:12:09;3.93;;;3.53;;
13309;SDS011;6723;48.256;16.402;2022-08-21T16:14:38;3.77;;;3.07;;
13309;SDS011;6723;48.256;16.402;2022-08-21T16:17:05;4.80;;;3.43;;
13309;SDS011;6723;48.256;16.402;2022-08-21T16:19:32;3.47;;;3.10;;
13309;SDS011;6723;48.256;16.402;2022-08-21T16:21:58;6.03;;;3.83;;
13309;SDS011;6723;48.256;16.402;2022-08-21T16:24:24;3.70;;;3.40;;
13309;SDS011;6723;48.256;16.402;2022-08-21T16:26:50;4.97;;;3.40;;
13309;SDS011;6723;48.256;16.402;2022-08-21T16:29:17;5.00;;;3.73;;
13309;SDS011;6723;48.256;16.402;2022-08-21T16:31:45;5.03;;;3.37;;
13309;SDS011;6723;48.256;16.402;2022-08-21T16:34:14;4.17;;;3.53;;
13309;SDS011;6723;48.256;16.402;2022-08-21T16:36:42;3.93;;;3.57;;
13309;SDS011;6723;48.256;16.402;2022-08-21T16:39:10;4.17;;;3.03;;
13309;SDS011;6723;48.256;16.402;2022-08-21T16:41:36;6.47;;;3.60;;
13309;SDS011;6723;48.256;16.402;2022-08-21T16:44:03;4.13;;;3.73;;